Time;durP1;ratioP1;P1;durP2;ratioP2;P2;SDS_P1;SDS_P2;PMS_P1;PMS_P2;Temp;Humidity;BMP_temperature;BMP_pressure;BME280_temperature;BME280_humidity;BME280_pressure;Samples;Min_cycle;Max_cycle;Signal;HPM_P1;HPM_P2
2022/07/11 00:02:22;;;;;;;1.43;1.33;;;23.50;49.80;;;;;;5077513;28;20533;-50
2022/07/11 00:05:02;;;;;;;1.87;1.10;;;23.50;49.70;;;;;;5107718;27;21103;-49
2022/07/11 00:07:43;;;;;;;1.23;1.13;;;23.50;49.80;;;;;;5120721;27;20623;-49
2022/07/11 00:10:22;;;;;;;2.45;1.58;;;23.40;49.70;;;;;;5137143;27;1210858;-49
2022/07/11 00:13:03;;;;;;;1.33;1.10;;;23.50;49.80;;;;;;5099337;27;20595;-49
2022/07/11 00:15:42;;;;;;;1.60;1.40;;;23.40;49.70;;;;;;5124122;27;20600;-48
2022/07/11 00:18:23;;;;;;;1.63;1.17;;;23.50;49.90;;;;;;5049586;28;20544;-48
2022/07/11 00:21:04;;;;;;;1.57;1.27;;;23.50;49.90;;;;;;5087625;28;20532;-48
2022/07/11 00:23:45;;;;;;;1.50;1.40;;;23.50;49.80;;;;;;5058285;28;20609;-49
2022/07/11 00:26:27;;;;;;;1.20;1.10;;;23.40;51.00;;;;;;5108298;27;20588;-48
2022/07/11 00:29:08;;;;;;;2.30;1.40;;;23.50;49.80;;;;;;5053452;27;20616;-48
2022/07/11 00:31:48;;;;;;;1.20;1.10;;;23.40;49.80;;;;;;5087773;28;21057;-48
2022/07/11 00:34:29;;;;;;;1.40;1.30;;;23.40;49.80;;;;;;5081293;28;20535;-49
2022/07/11 00:37:09;;;;;;;1.80;1.03;;;23.40;49.80;;;;;;5127015;27;21051;-50
2022/07/11 00:39:50;;;;;;;1.30;1.20;;;23.50;49.90;;;;;;5087897;27;20538;-49
2022/07/11 00:42:32;;;;;;;1.70;1.30;;;23.40;49.70;;;;;;5079255;28;20553;-50
2022/07/11 00:45:12;;;;;;;1.50;1.20;;;23.50;49.90;;;;;;5087427;28;21059;-48
2022/07/11 00:47:51;;;;;;;1.50;1.40;;;23.40;49.80;;;;;;5012384;28;20573;-49
2022/07/11 00:50:33;;;;;;;1.50;1.20;;;23.40;49.80;;;;;;5087139;27;20589;-48
2022/07/11 00:53:13;;;;;;;2.10;1.30;;;23.40;49.80;;;;;;5034318;28;21068;-49
2022/07/11 00:55:55;;;;;;;3.67;1.20;;;23.40;49.90;;;;;;5127580;27;20579;-49
2022/07/11 00:58:36;;;;;;;1.37;1.27;;;23.40;49.90;;;;;;5128130;27;20610;-49
2022/07/11 01:01:17;;;;;;;1.03;1.00;;;23.40;49.90;;;;;;5133153;27;20574;-47
2022/07/11 01:03:57;;;;;;;1.20;1.10;;;23.40;49.90;;;;;;5074498;27;20544;-48
2022/07/11 01:06:38;;;;;;;2.93;1.33;;;23.40;50.00;;;;;;5078159;28;20598;-48
2022/07/11 01:09:18;;;;;;;1.53;1.40;;;23.40;50.00;;;;;;5065252;27;20967;-48
2022/07/11 01:11:58;;;;;;;1.47;1.33;;;23.40;50.00;;;;;;5106588;27;20523;-48
2022/07/11 01:14:39;;;;;;;1.63;1.20;;;23.40;50.00;;;;;;5087909;27;20577;-49
2022/07/11 01:17:19;;;;;;;1.27;1.17;;;23.40;50.00;;;;;;5075070;28;20538;-47
2022/07/11 01:20:00;;;;;;;1.40;1.30;;;23.40;50.00;;;;;;5106518;27;21114;-47
2022/07/11 01:22:45;;;;;;;1.13;1.03;;;23.40;50.00;;;;;;5075865;28;20616;-49
2022/07/11 01:25:31;;;;;;;2.63;1.37;;;23.40;50.00;;;;;;5065128;27;20533;-48
2022/07/11 01:28:11;;;;;;;2.33;1.30;;;23.40;50.10;;;;;;5065303;28;20600;-49
2022/07/11 01:30:51;;;;;;;4.53;1.40;;;23.40;50.00;;;;;;5074179;27;20531;-48
2022/07/11 01:33:32;;;;;;;1.20;1.10;;;23.40;50.00;;;;;;5108551;27;20536;-48
2022/07/11 01:36:13;;;;;;;1.03;0.93;;;23.40;50.00;;;;;;5128343;27;20582;-48
2022/07/11 01:38:55;;;;;;;1.43;1.33;;;23.30;49.90;;;;;;5085966;27;20609;-48
2022/07/11 01:41:35;;;;;;;1.30;1.20;;;23.30;50.00;;;;;;5108353;27;20576;-48
2022/07/11 01:44:14;;;;;;;1.20;1.07;;;23.30;50.00;;;;;;5074101;27;20548;-48
2022/07/11 01:46:54;;;;;;;2.67;1.73;;;23.30;50.00;;;;;;5075655;27;20599;-47
2022/07/11 01:49:36;;;;;;;1.43;1.13;;;23.40;50.20;;;;;;5077730;27;20692;-49
2022/07/11 01:52:15;;;;;;;1.60;1.50;;;23.30;50.10;;;;;;5085222;28;20569;-48
2022/07/11 01:54:55;;;;;;;1.77;1.43;;;23.30;50.10;;;;;;5081443;28;20946;-48
2022/07/11 01:57:34;;;;;;;1.83;1.60;;;23.30;50.10;;;;;;5137525;27;1204986;-49
2022/07/11 02:00:15;;;;;;;1.43;1.33;;;23.30;50.10;;;;;;5086995;28;20597;-48
2022/07/11 02:02:56;;;;;;;1.53;1.10;;;23.30;50.20;;;;;;5119576;27;20584;-49
2022/07/11 02:05:39;;;;;;;1.50;1.40;;;23.30;50.20;;;;;;5081730;27;20568;-48
2022/07/11 02:08:19;;;;;;;1.83;1.33;;;23.30;50.20;;;;;;5069268;27;20604;-48
2022/07/11 02:11:01;;;;;;;2.10;1.90;;;23.30;50.20;;;;;;5087697;28;20535;-49
2022/07/11 02:13:40;;;;;;;2.00;1.60;;;23.30;50.20;;;;;;5064821;27;20589;-48
2022/07/11 02:16:22;;;;;;;1.77;1.67;;;23.30;50.40;;;;;;5077587;28;21035;-49
2022/07/11 02:19:03;;;;;;;1.50;1.40;;;23.30;50.20;;;;;;5034745;28;21075;-47
2022/07/11 02:21:45;;;;;;;1.83;1.07;;;23.30;50.30;;;;;;5108801;27;20511;-49
2022/07/11 02:24:24;;;;;;;1.80;1.57;;;23.30;50.20;;;;;;5084158;28;20593;-49
2022/07/11 02:27:05;;;;;;;2.03;1.40;;;23.30;50.40;;;;;;5074481;27;20952;-48
2022/07/11 02:29:46;;;;;;;1.80;1.70;;;23.30;50.30;;;;;;5087525;28;21041;-48
2022/07/11 02:32:25;;;;;;;1.57;1.47;;;23.30;50.40;;;;;;5078995;27;20523;-49
2022/07/11 02:35:06;;;;;;;1.40;1.20;;;23.30;50.40;;;;;;5087495;28;20585;-48
2022/07/11 02:37:48;;;;;;;2.83;1.83;;;23.30;50.40;;;;;;5100856;27;21092;-50
2022/07/11 02:40:28;;;;;;;2.03;1.50;;;23.30;50.40;;;;;;5067290;28;20583;-48
2022/07/11 02:43:08;;;;;;;2.00;1.80;;;23.30;50.40;;;;;;5059055;27;20612;-50
2022/07/11 02:45:49;;;;;;;1.50;1.40;;;23.30;50.50;;;;;;5081090;28;20952;-49
2022/07/11 02:48:31;;;;;;;2.63;1.53;;;23.30;50.50;;;;;;5126992;27;20545;-48
2022/07/11 02:51:10;;;;;;;1.50;1.40;;;23.30;50.40;;;;;;5069182;27;20525;-49
2022/07/11 02:53:50;;;;;;;1.80;1.70;;;23.30;50.50;;;;;;5038951;28;20610;-48
2022/07/11 02:56:30;;;;;;;1.77;1.40;;;23.30;50.50;;;;;;5095209;27;20532;-49
2022/07/11 02:59:10;;;;;;;1.70;1.60;;;23.30;50.50;;;;;;5032036;27;20552;-48
2022/07/11 03:01:52;;;;;;;1.77;1.60;;;23.30;50.50;;;;;;5083152;27;20583;-48
2022/07/11 03:04:33;;;;;;;2.17;1.30;;;23.30;50.40;;;;;;5095100;28;20524;-48
2022/07/11 03:07:14;;;;;;;1.83;1.63;;;23.30;50.40;;;;;;5075667;28;20601;-48
2022/07/11 03:09:54;;;;;;;1.30;1.03;;;23.30;50.50;;;;;;5083242;28;20532;-49
2022/07/11 03:12:35;;;;;;;1.60;1.47;;;23.20;50.30;;;;;;5091532;27;21128;-49
2022/07/11 03:15:15;;;;;;;1.40;1.30;;;23.20;50.40;;;;;;5144972;27;20578;-47
2022/07/11 03:17:55;;;;;;;1.80;1.43;;;23.20;50.40;;;;;;5038341;28;20982;-49
2022/07/11 03:20:36;;;;;;;2.10;1.47;;;23.30;51.70;;;;;;5087136;27;20520;-49
2022/07/11 03:23:16;;;;;;;1.93;1.37;;;23.30;50.50;;;;;;5052069;28;21075;-48
2022/07/11 03:25:56;;;;;;;2.67;1.50;;;23.20;50.40;;;;;;5079979;28;20602;-49
2022/07/11 03:28:36;;;;;;;1.73;1.60;;;23.20;50.50;;;;;;5046352;28;20543;-50
2022/07/11 03:31:18;;;;;;;1.67;1.57;;;23.20;50.50;;;;;;5074708;28;20529;-49
2022/07/11 03:33:58;;;;;;;2.00;1.77;;;23.20;50.50;;;;;;5035999;28;20555;-48
2022/07/11 03:36:39;;;;;;;1.77;1.67;;;23.20;50.50;;;;;;5081754;28;20955;-49
2022/07/11 03:39:20;;;;;;;1.53;1.43;;;23.20;50.50;;;;;;5061372;27;20552;-49
2022/07/11 03:42:01;;;;;;;2.07;1.87;;;23.20;50.60;;;;;;5086727;27;20520;-49
2022/07/11 03:44:41;;;;;;;1.67;1.57;;;23.20;50.50;;;;;;5087884;28;20934;-47
2022/07/11 03:47:22;;;;;;;1.33;1.23;;;23.20;50.60;;;;;;5066443;27;21962;-49
2022/07/11 03:50:02;;;;;;;1.50;1.40;;;23.20;50.50;;;;;;5087269;28;20560;-47
2022/07/11 03:52:44;;;;;;;1.57;1.47;;;23.20;50.50;;;;;;5136349;27;20541;-48
2022/07/11 03:55:25;;;;;;;2.10;1.90;;;23.20;50.50;;;;;;5069380;28;20535;-49
2022/07/11 03:58:07;;;;;;;2.10;1.77;;;23.20;50.70;;;;;;5077417;28;20867;-49
2022/07/11 04:00:48;;;;;;;1.70;1.60;;;23.20;50.70;;;;;;5108115;27;20572;-49
2022/07/11 04:03:28;;;;;;;2.90;2.10;;;23.20;50.70;;;;;;5111808;27;20599;-48
2022/07/11 04:06:09;;;;;;;2.60;1.50;;;23.20;50.70;;;;;;5072881;28;20583;-48
2022/07/11 04:08:50;;;;;;;2.03;1.77;;;23.10;50.60;;;;;;5085563;27;20545;-48
2022/07/11 04:11:30;;;;;;;2.70;1.50;;;23.20;50.70;;;;;;5086765;28;20454;-48
2022/07/11 04:14:12;;;;;;;2.07;1.80;;;23.20;50.80;;;;;;5031523;27;20605;-48
2022/07/11 04:16:53;;;;;;;1.90;1.80;;;23.20;50.80;;;;;;5071863;28;20599;-48
2022/07/11 04:19:34;;;;;;;1.60;1.50;;;23.20;50.80;;;;;;5128516;27;20524;-49
2022/07/11 04:22:14;;;;;;;2.80;1.83;;;23.10;50.80;;;;;;5100923;27;20524;-49
2022/07/11 04:24:54;;;;;;;1.97;1.77;;;23.10;50.80;;;;;;5086240;27;20932;-49
2022/07/11 04:27:36;;;;;;;1.93;1.73;;;23.10;50.80;;;;;;5102227;27;21173;-48
2022/07/11 04:30:20;;;;;;;3.00;2.00;;;23.10;50.90;;;;;;5087204;28;20522;-48
2022/07/11 04:33:02;;;;;;;1.87;1.77;;;23.10;50.90;;;;;;5071197;27;20596;-73
2022/07/11 04:35:49;;;;;;;2.13;1.93;;;23.10;50.80;;;;;;5082046;27;20539;-50
2022/07/11 04:38:29;;;;;;;1.93;1.43;;;23.10;50.90;;;;;;5070028;28;20617;-48
2022/07/11 04:41:11;;;;;;;2.57;1.80;;;23.10;52.10;;;;;;5121663;27;20542;-49
2022/07/11 04:43:52;;;;;;;2.63;1.77;;;23.10;50.90;;;;;;5039455;28;20611;-48
2022/07/11 04:46:32;;;;;;;2.83;1.87;;;23.10;50.90;;;;;;5070059;28;20544;-47
2022/07/11 04:49:13;;;;;;;2.50;2.07;;;23.10;51.00;;;;;;5050535;27;20610;-48
2022/07/11 04:51:56;;;;;;;2.23;1.50;;;23.10;51.00;;;;;;5132444;27;21037;-49
2022/07/11 04:54:42;;;;;;;1.93;1.83;;;23.10;51.00;;;;;;5069600;28;20587;-48
2022/07/11 04:57:22;;;;;;;1.47;1.37;;;23.10;50.90;;;;;;5071141;28;21085;-49
2022/07/11 05:00:03;;;;;;;2.00;1.80;;;23.10;51.00;;;;;;5087568;27;20582;-49
2022/07/11 05:02:43;;;;;;;2.10;1.90;;;23.10;51.10;;;;;;5081496;28;20537;-49
2022/07/11 05:05:26;;;;;;;1.80;1.37;;;23.10;51.10;;;;;;5089263;27;20873;-48
2022/07/11 05:08:07;;;;;;;2.83;2.03;;;23.10;51.00;;;;;;5048071;27;20546;-48
2022/07/11 05:10:48;;;;;;;2.17;1.60;;;23.10;51.00;;;;;;5087482;28;20583;-49
2022/07/11 05:13:29;;;;;;;2.13;1.47;;;23.10;51.00;;;;;;5069121;27;20624;-49
2022/07/11 05:16:11;;;;;;;2.00;1.80;;;23.10;51.10;;;;;;5074646;27;20557;-48
2022/07/11 05:18:52;;;;;;;1.83;1.70;;;23.10;51.10;;;;;;5039516;28;20975;-50
2022/07/11 05:21:32;;;;;;;1.70;1.60;;;23.10;51.10;;;;;;5092762;27;20518;-47
2022/07/11 05:24:13;;;;;;;1.50;1.40;;;23.10;51.20;;;;;;5045964;27;20967;-49
2022/07/11 05:26:54;;;;;;;2.57;2.37;;;23.10;51.10;;;;;;5076984;27;20537;-49
2022/07/11 05:29:34;;;;;;;2.27;1.60;;;23.10;51.20;;;;;;5088497;27;20520;-48
2022/07/11 05:32:16;;;;;;;2.23;2.07;;;23.00;51.20;;;;;;5080702;28;20584;-49
2022/07/11 05:34:58;;;;;;;2.40;1.60;;;23.10;51.20;;;;;;5087538;27;20540;-48
2022/07/11 05:37:39;;;;;;;2.03;1.80;;;23.00;51.10;;;;;;5071067;27;20538;-49
2022/07/11 05:40:20;;;;;;;2.03;1.40;;;23.00;51.30;;;;;;5081699;27;20596;-49
2022/07/11 05:43:01;;;;;;;1.70;1.60;;;23.10;51.30;;;;;;5133072;22;20532;-65
2022/07/11 05:45:42;;;;;;;3.37;2.00;;;23.10;51.30;;;;;;5083762;28;21064;-47
2022/07/11 05:48:22;;;;;;;1.83;1.60;;;23.00;51.20;;;;;;5075236;27;20577;-47
2022/07/11 05:51:02;;;;;;;2.23;2.03;;;23.00;51.20;;;;;;5070625;28;21108;-48
2022/07/11 05:53:44;;;;;;;1.47;1.37;;;23.00;51.30;;;;;;5047615;28;20557;-49
2022/07/11 05:56:25;;;;;;;1.80;1.67;;;23.00;51.30;;;;;;5108128;27;20983;-45
2022/07/11 05:59:07;;;;;;;1.77;1.67;;;23.00;51.30;;;;;;5069713;27;20571;-48
2022/07/11 06:01:48;;;;;;;2.13;1.80;;;23.00;51.30;;;;;;5127693;27;20520;-47
2022/07/11 06:04:29;;;;;;;1.73;1.63;;;23.00;51.30;;;;;;5022902;28;20537;-46
2022/07/11 06:07:09;;;;;;;3.50;1.73;;;23.00;51.30;;;;;;5073120;28;20598;-47
2022/07/11 06:09:50;;;;;;;2.40;1.67;;;23.00;51.30;;;;;;5122892;27;20935;-48
2022/07/11 06:12:30;;;;;;;3.07;1.60;;;23.00;51.30;;;;;;5086877;27;21066;-47
2022/07/11 06:15:11;;;;;;;2.77;1.70;;;23.00;51.30;;;;;;5087981;27;21102;-47
2022/07/11 06:17:52;;;;;;;1.70;1.60;;;23.00;51.30;;;;;;5101805;27;20534;-66
2022/07/11 06:20:33;;;;;;;2.83;1.37;;;23.00;51.30;;;;;;5108479;27;20570;-47
2022/07/11 06:23:14;;;;;;;1.43;1.30;;;23.00;51.50;;;;;;5115991;27;20543;-46
2022/07/11 06:25:56;;;;;;;2.30;1.40;;;23.00;51.60;;;;;;5121718;27;20552;-48
2022/07/11 06:28:36;;;;;;;1.40;1.30;;;23.00;51.40;;;;;;5073803;28;20568;-46
2022/07/11 06:31:16;;;;;;;1.93;1.53;;;23.00;51.40;;;;;;5123623;27;21116;-46
2022/07/11 06:33:57;;;;;;;2.10;1.80;;;23.00;51.60;;;;;;5070757;28;20610;-47
2022/07/11 06:36:38;;;;;;;1.60;1.50;;;23.00;51.60;;;;;;5128657;27;20510;-47
2022/07/11 06:39:20;;;;;;;1.57;1.37;;;23.00;51.50;;;;;;5142252;27;20603;-47
2022/07/11 06:41:59;;;;;;;2.20;1.50;;;22.90;51.50;;;;;;5064014;27;20527;-47
2022/07/11 06:44:39;;;;;;;1.80;1.43;;;22.90;51.50;;;;;;5094091;27;20533;-46
2022/07/11 06:47:19;;;;;;;2.27;1.80;;;22.90;51.50;;;;;;5071312;28;20596;-47
2022/07/11 06:50:00;;;;;;;1.60;1.30;;;22.90;51.70;;;;;;5092149;27;20557;-47
2022/07/11 06:52:42;;;;;;;1.70;1.60;;;22.90;51.60;;;;;;5069856;28;20611;-46
2022/07/11 06:55:23;;;;;;;1.40;1.30;;;22.90;51.60;;;;;;5080020;27;20525;-48
2022/07/11 06:58:05;;;;;;;1.83;1.50;;;22.90;51.80;;;;;;5079792;27;21035;-47
2022/07/11 07:01:05;;;;;;;1.63;1.50;;;22.90;51.70;;;;;;5086124;28;20606;-46
2022/07/11 07:03:45;;;;;;;1.43;1.30;;;22.90;51.60;;;;;;5027882;28;20597;-47
2022/07/11 07:06:26;;;;;;;1.70;1.53;;;22.90;51.60;;;;;;5119987;27;21105;-46
2022/07/11 07:09:07;;;;;;;1.60;1.50;;;22.90;51.60;;;;;;5060362;27;20571;-48
2022/07/11 07:11:48;;;;;;;1.57;1.43;;;22.90;51.60;;;;;;5088358;28;20517;-47
2022/07/11 07:14:29;;;;;;;1.50;1.40;;;22.90;51.70;;;;;;5087800;28;20529;-47
2022/07/11 07:17:11;;;;;;;1.53;1.30;;;22.90;51.70;;;;;;5057402;27;21088;-46
2022/07/11 07:19:52;;;;;;;1.60;1.40;;;22.90;51.60;;;;;;5087527;27;20940;-47
2022/07/11 07:22:33;;;;;;;2.03;1.50;;;22.90;51.60;;;;;;5073430;27;21036;-47
2022/07/11 07:25:15;;;;;;;2.33;1.53;;;22.90;51.70;;;;;;5103874;27;20868;-46
2022/07/11 07:27:54;;;;;;;1.60;1.50;;;22.90;51.70;;;;;;5063806;28;20533;-48
2022/07/11 07:30:36;;;;;;;1.30;1.20;;;22.90;51.90;;;;;;5024914;28;20543;-48
2022/07/11 07:33:18;;;;;;;1.67;1.40;;;22.90;51.80;;;;;;5075013;27;20550;-46
2022/07/11 07:36:18;;;;;;;1.50;1.40;;;22.90;51.60;;;;;;5088580;27;20536;-47
2022/07/11 07:39:00;;;;;;;2.23;2.03;;;22.90;51.80;;;;;;5055703;28;20970;-49
2022/07/11 07:41:41;;;;;;;1.80;1.70;;;22.90;51.70;;;;;;5087895;28;20594;-47
2022/07/11 07:44:22;;;;;;;1.90;1.17;;;22.90;51.80;;;;;;5067882;27;20680;-46
2022/07/11 07:47:04;;;;;;;1.53;1.43;;;22.90;51.70;;;;;;5079644;27;20592;-46
2022/07/11 07:49:45;;;;;;;1.30;1.20;;;22.90;51.80;;;;;;5126827;27;20531;-46
2022/07/11 07:52:26;;;;;;;2.10;1.80;;;22.90;51.40;;;;;;5079922;28;20881;-46
2022/07/11 07:55:09;;;;;;;2.47;2.10;;;22.90;52.10;;;;;;5079586;27;20598;-47
2022/07/11 07:57:49;;;;;;;2.57;1.93;;;22.90;52.40;;;;;;5113267;27;20534;-47
2022/07/11 08:03:30;;;;;;;2.20;1.50;;;22.80;52.20;;;;;;5111902;27;20556;-46
2022/07/11 08:06:11;;;;;;;2.90;1.80;;;22.80;52.10;;;;;;5076030;28;20539;-47
2022/07/11 08:08:51;;;;;;;1.90;1.63;;;22.90;52.00;;;;;;5111657;27;20549;-47
2022/07/11 08:11:33;;;;;;;1.63;1.53;;;22.90;52.00;;;;;;5087643;28;20933;-47
2022/07/11 08:14:13;;;;;;;3.00;1.80;;;22.90;52.10;;;;;;5052312;27;20543;-49
2022/07/11 08:16:53;;;;;;;2.17;1.97;;;22.90;52.50;;;;;;5071286;28;20596;-46
2022/07/11 08:19:35;;;;;;;2.00;1.50;;;22.80;52.50;;;;;;5072305;28;20874;-47
2022/07/11 08:22:15;;;;;;;2.20;1.47;;;22.90;52.60;;;;;;5082177;28;20567;-47
2022/07/11 08:24:56;;;;;;;2.47;1.80;;;22.80;52.40;;;;;;5110597;27;20977;-46
2022/07/11 08:27:37;;;;;;;2.37;1.50;;;22.80;52.50;;;;;;5033235;27;20557;-48
2022/07/11 08:30:20;;;;;;;3.40;1.93;;;22.80;52.50;;;;;;5086135;27;21123;-46
2022/07/11 08:33:00;;;;;;;2.03;1.50;;;22.80;54.30;;;;;;5116710;27;20544;-47
2022/07/11 08:35:42;;;;;;;2.17;1.80;;;22.80;53.80;;;;;;5124716;27;20925;-46
2022/07/11 08:38:22;;;;;;;3.27;1.80;;;22.80;53.70;;;;;;5069912;27;20597;-46
2022/07/11 08:41:03;;;;;;;5.53;1.60;;;22.80;53.70;;;;;;5128840;27;20919;-46
2022/07/11 08:43:46;;;;;;;2.07;1.30;;;22.80;53.60;;;;;;5099491;27;20624;-46
2022/07/11 08:46:29;;;;;;;2.10;1.60;;;22.80;53.80;;;;;;5080416;27;21067;-46
2022/07/11 08:49:13;;;;;;;3.30;1.70;;;22.80;54.00;;;;;;5058617;27;21055;-46
2022/07/11 08:51:54;;;;;;;1.50;1.20;;;22.80;54.10;;;;;;5086737;28;20587;-47
2022/07/11 08:54:35;;;;;;;2.17;1.43;;;22.80;53.70;;;;;;5081990;27;20540;-47
2022/07/11 08:57:16;;;;;;;2.40;1.87;;;22.80;53.80;;;;;;5117509;27;20531;-47
2022/07/11 08:59:58;;;;;;;1.83;1.73;;;22.80;53.70;;;;;;5086800;28;20528;-46
2022/07/11 09:02:42;;;;;;;1.87;1.67;;;22.80;53.60;;;;;;5075618;27;20537;-47
2022/07/11 09:05:24;;;;;;;2.00;1.80;;;22.80;53.50;;;;;;5084811;27;20578;-46
2022/07/11 09:08:05;;;;;;;1.70;1.60;;;22.80;53.40;;;;;;5064281;27;20570;-46
2022/07/11 09:10:48;;;;;;;1.50;1.40;;;22.80;53.40;;;;;;5071445;27;20514;-50
2022/07/11 09:13:30;;;;;;;6.27;1.50;;;22.80;53.50;;;;;;5065888;27;20554;-47
2022/07/11 09:16:11;;;;;;;1.60;1.50;;;22.80;53.40;;;;;;5085810;28;20536;-46
2022/07/11 09:18:52;;;;;;;4.10;1.57;;;22.80;53.40;;;;;;5040022;28;20945;-47
2022/07/11 09:27:46;;;;;;;2.07;1.30;;;22.80;53.50;;;;;;5078036;28;21136;-50
2022/07/11 09:30:28;;;;;;;2.57;1.67;;;22.80;53.50;;;;;;5088032;28;20520;-47
2022/07/11 09:33:10;;;;;;;1.63;1.30;;;22.80;53.50;;;;;;5096980;27;20586;-51
2022/07/11 09:35:50;;;;;;;2.87;1.37;;;22.80;53.50;;;;;;5087603;27;20520;-48
2022/07/11 09:38:30;;;;;;;1.30;1.20;;;22.80;53.70;;;;;;5066216;27;21087;-46
2022/07/11 09:41:13;;;;;;;1.33;1.20;;;22.80;53.50;;;;;;5107850;27;20507;-45
2022/07/11 09:44:07;;;;;;;1.30;1.20;;;22.80;53.50;;;;;;5066652;28;20602;-46
2022/07/11 09:46:49;;;;;;;2.07;1.30;;;22.80;53.40;;;;;;5122719;27;20947;-47
2022/07/11 09:49:35;;;;;;;1.50;1.40;;;22.80;53.30;;;;;;5065056;28;20666;-48
2022/07/11 09:52:17;;;;;;;2.90;1.70;;;22.80;53.40;;;;;;5104075;27;20565;-47
2022/07/11 09:55:00;;;;;;;1.60;1.27;;;22.80;53.50;;;;;;5081178;27;20937;-47
2022/07/11 09:57:41;;;;;;;1.30;1.20;;;22.80;53.20;;;;;;5070104;28;20614;-47
2022/07/11 10:00:22;;;;;;;2.47;1.40;;;22.80;53.20;;;;;;5087772;28;20645;-47
2022/07/11 10:03:05;;;;;;;1.90;1.40;;;22.80;53.20;;;;;;5060445;27;20551;-48
2022/07/11 10:06:07;;;;;;;2.13;1.93;;;22.80;53.30;;;;;;5078957;28;20654;-46
2022/07/11 10:08:47;;;;;;;1.47;1.37;;;22.80;53.30;;;;;;5038954;27;20554;-46
2022/07/11 10:11:27;;;;;;;1.70;1.60;;;22.70;53.10;;;;;;5114733;27;20524;-47
2022/07/11 10:14:09;;;;;;;1.87;1.50;;;22.80;53.20;;;;;;5089357;27;20578;-47
2022/07/11 10:16:57;;;;;;;1.87;1.40;;;22.80;53.50;;;;;;5062546;28;21070;-46
2022/07/11 10:19:45;;;;;;;0.90;0.90;;;22.80;53.40;;;;;;5127879;27;1213470;-46
2022/07/11 10:22:38;;;;;;;1.27;0.93;;;22.80;53.70;;;;;;5119842;27;20822;-47
2022/07/11 10:25:26;;;;;;;1.10;0.90;;;22.70;53.60;;;;;;5084435;27;20959;-47
2022/07/11 10:28:16;;;;;;;1.50;1.37;;;22.70;53.40;;;;;;5088457;27;20767;-47
2022/07/11 10:30:59;;;;;;;1.60;1.40;;;22.80;53.30;;;;;;5107695;27;20574;-47
2022/07/11 10:34:01;;;;;;;1.47;1.30;;;22.80;53.30;;;;;;5118637;27;20538;-48
2022/07/11 10:36:43;;;;;;;1.57;1.43;;;22.70;53.50;;;;;;5070958;28;20589;-48
2022/07/11 10:39:26;;;;;;;1.30;1.13;;;22.70;53.70;;;;;;5062639;27;20682;-47
2022/07/11 10:42:09;;;;;;;1.27;1.17;;;22.70;53.80;;;;;;5087382;28;20512;-67
2022/07/11 10:44:56;;;;;;;2.13;1.50;;;22.70;53.70;;;;;;5029155;28;20467;-66
2022/07/11 10:47:36;;;;;;;1.30;1.20;;;22.70;53.90;;;;;;5024112;28;20806;-67
2022/07/11 10:50:15;;;;;;;1.47;1.37;;;22.70;53.70;;;;;;5023950;28;20875;-66
2022/07/11 10:52:47;;;;;;;2.10;1.30;;;22.70;53.90;;;;;;5008864;28;20986;-67
2022/07/11 10:55:33;;;;;;;1.70;1.40;;;22.70;53.70;;;;;;5018366;28;20498;-67
2022/07/11 10:58:09;;;;;;;1.83;1.27;;;22.70;53.50;;;;;;5025929;28;20468;-67
2022/07/11 11:00:38;;;;;;;1.47;1.37;;;22.70;53.60;;;;;;5020669;28;20459;-67
2022/07/11 11:03:07;;;;;;;2.53;1.30;;;22.70;53.70;;;;;;5017840;28;20456;-67
2022/07/11 11:05:47;;;;;;;1.23;1.13;;;22.70;53.70;;;;;;5018691;28;20421;-67
2022/07/11 11:08:44;;;;;;;1.43;1.33;;;22.70;53.70;;;;;;5019022;28;20452;-67
2022/07/11 11:11:37;;;;;;;1.47;1.30;;;22.70;53.70;;;;;;5012652;28;20942;-67
2022/07/11 11:14:23;;;;;;;1.53;1.43;;;22.70;53.60;;;;;;5017298;28;20476;-67
2022/07/11 11:16:53;;;;;;;1.43;1.30;;;22.70;53.60;;;;;;5023732;28;20448;-66
2022/07/11 11:19:53;;;;;;;1.40;1.30;;;22.70;53.50;;;;;;5016171;28;20473;-67
2022/07/11 11:22:23;;;;;;;1.30;1.20;;;22.70;53.40;;;;;;5025860;28;20878;-68
2022/07/11 11:24:53;;;;;;;1.33;1.10;;;22.70;53.50;;;;;;5022321;28;20440;-67
2022/07/11 11:28:02;;;;;;;1.20;1.10;;;22.70;53.40;;;;;;5021273;28;20960;-67
2022/07/11 11:30:31;;;;;;;1.37;1.27;;;22.70;53.40;;;;;;5019129;28;20432;-67
2022/07/11 11:32:59;;;;;;;2.00;1.10;;;22.70;53.40;;;;;;5018165;28;20461;-68
2022/07/11 11:35:27;;;;;;;1.90;0.97;;;22.70;53.50;;;;;;5022175;28;20440;-68
2022/07/11 11:38:00;;;;;;;2.07;1.30;;;22.70;53.40;;;;;;5018345;28;20465;-67
2022/07/11 11:40:28;;;;;;;1.47;1.20;;;22.70;53.40;;;;;;5010961;28;20509;-67
2022/07/11 11:42:56;;;;;;;3.40;2.00;;;22.70;53.50;;;;;;5015549;28;20472;-67
2022/07/11 11:45:24;;;;;;;1.57;1.47;;;22.70;53.60;;;;;;5016688;28;20480;-67
2022/07/11 11:47:54;;;;;;;1.10;1.00;;;22.70;53.60;;;;;;5016459;28;20478;-68
2022/07/11 11:50:22;;;;;;;1.30;1.10;;;22.70;53.50;;;;;;5020244;28;20448;-67
2022/07/11 11:52:50;;;;;;;1.70;1.60;;;22.70;53.60;;;;;;5028485;28;20512;-67
2022/07/11 11:55:19;;;;;;;1.27;1.17;;;22.70;53.50;;;;;;5048732;28;20451;-67
2022/07/11 11:57:47;;;;;;;1.27;1.17;;;22.70;53.50;;;;;;5053724;28;20868;-66
2022/07/11 12:00:26;;;;;;;1.23;1.10;;;22.70;53.70;;;;;;5054412;28;20928;-65
2022/07/11 12:03:15;;;;;;;2.13;1.60;;;22.70;53.70;;;;;;5045875;28;21024;-66
2022/07/11 12:05:54;;;;;;;1.47;1.37;;;22.70;53.80;;;;;;5054286;28;20913;-67
2022/07/11 12:08:27;;;;;;;2.27;1.50;;;22.70;53.80;;;;;;5043934;28;21045;-67
2022/07/11 12:10:55;;;;;;;1.33;1.23;;;22.70;53.90;;;;;;5050652;28;20427;-67
2022/07/11 12:13:23;;;;;;;1.17;0.97;;;22.70;53.90;;;;;;5046598;28;20513;-67
2022/07/11 12:18:39;;;;;;;1.60;1.50;;;22.70;53.60;;;;;;5050263;28;20475;-67
2022/07/11 12:21:26;;;;;;;2.10;1.20;;;22.70;53.40;;;;;;5053481;28;20533;-68
2022/07/11 12:24:16;;;;;;;0.83;0.83;;;22.70;53.50;;;;;;5048438;28;20459;-67
2022/07/11 12:27:04;;;;;;;1.83;1.20;;;22.70;53.50;;;;;;5053911;28;20418;-67
2022/07/11 12:29:51;;;;;;;1.60;1.50;;;22.70;53.60;;;;;;5035187;22;20539;-74
2022/07/11 12:32:37;;;;;;;1.33;1.23;;;22.70;53.80;;;;;;5005585;28;20839;-74
2022/07/11 12:35:25;;;;;;;1.57;1.47;;;22.70;53.90;;;;;;4998882;28;20448;-74
2022/07/11 12:38:12;;;;;;;1.27;1.17;;;22.70;53.70;;;;;;4992672;28;20563;-73
2022/07/11 12:41:01;;;;;;;1.30;1.20;;;22.70;53.50;;;;;;5002597;28;20475;-74
2022/07/11 12:46:54;;;;;;;2.77;1.77;;;22.70;53.50;;;;;;5001587;28;20954;-74
2022/07/11 12:49:44;;;;;;;1.20;1.10;;;22.70;53.70;;;;;;5001128;28;20467;-73
2022/07/11 12:52:39;;;;;;;1.90;1.30;;;22.70;53.80;;;;;;5005280;28;20460;-74
2022/07/11 12:55:28;;;;;;;1.47;1.20;;;22.70;53.80;;;;;;4996072;28;20520;-73
2022/07/11 12:58:17;;;;;;;1.50;1.20;;;22.70;53.60;;;;;;5003812;28;20469;-74
2022/07/11 13:01:04;;;;;;;1.13;1.03;;;22.70;54.80;;;;;;5005114;28;20868;-73
2022/07/11 13:03:51;;;;;;;1.30;1.00;;;22.70;53.60;;;;;;4998053;28;20468;-72
2022/07/11 13:09:48;;;;;;;1.23;1.13;;;22.70;53.70;;;;;;4994280;28;20526;-73
2022/07/11 13:12:35;;;;;;;1.43;1.33;;;22.70;53.80;;;;;;5001522;28;20473;-73
2022/07/11 13:15:23;;;;;;;1.30;1.10;;;22.70;53.90;;;;;;4993508;28;20432;-73
2022/07/11 13:18:10;;;;;;;1.60;1.50;;;22.70;53.90;;;;;;5002580;28;20527;-73
2022/07/11 13:20:57;;;;;;;3.00;1.33;;;22.70;55.40;;;;;;5010440;28;20428;-74
2022/07/11 13:23:44;;;;;;;2.30;1.53;;;22.70;54.20;;;;;;5002755;28;20546;-73
2022/07/11 13:26:32;;;;;;;1.07;1.00;;;22.70;54.50;;;;;;4995412;28;20448;-74
2022/07/11 13:29:19;;;;;;;1.30;1.20;;;22.70;54.30;;;;;;4995555;28;20587;-75
2022/07/11 13:32:08;;;;;;;1.70;1.60;;;22.70;54.30;;;;;;4998377;28;20536;-73
2022/07/11 13:34:54;;;;;;;2.07;1.67;;;22.70;54.40;;;;;;5001744;28;20801;-74
2022/07/11 13:37:41;;;;;;;2.30;1.30;;;22.70;54.40;;;;;;5005428;28;20475;-74
2022/07/11 13:40:29;;;;;;;1.43;1.20;;;22.70;54.30;;;;;;4996768;28;20814;-73
2022/07/11 13:43:18;;;;;;;0.97;0.97;;;22.70;53.90;;;;;;5001730;28;20472;-73
2022/07/11 13:46:04;;;;;;;1.53;1.43;;;22.70;53.90;;;;;;5005734;28;20432;-72
2022/07/11 13:48:51;;;;;;;1.30;1.20;;;22.70;54.00;;;;;;4994770;28;20472;-73
2022/07/11 13:51:38;;;;;;;1.27;1.17;;;22.70;54.00;;;;;;5011255;28;20476;-72
2022/07/11 13:54:06;;;;;;;2.30;1.10;;;22.70;54.30;;;;;;5001695;28;20481;-71
2022/07/11 13:56:34;;;;;;;1.67;1.57;;;22.70;54.10;;;;;;5012591;28;20437;-71
2022/07/11 13:59:04;;;;;;;1.93;1.37;;;22.70;54.50;;;;;;5011958;28;20461;-72
2022/07/11 14:01:32;;;;;;;1.20;1.10;;;22.70;54.30;;;;;;5012698;28;20432;-72
2022/07/11 14:04:01;;;;;;;1.30;1.20;;;22.80;54.40;;;;;;5009544;28;20499;-72
2022/07/11 14:06:29;;;;;;;1.00;0.90;;;22.70;54.30;;;;;;5005825;28;20492;-72
2022/07/11 14:09:17;;;;;;;1.20;1.10;;;22.70;54.10;;;;;;5000987;28;20487;-71
2022/07/11 14:11:45;;;;;;;1.50;1.40;;;22.80;54.20;;;;;;5013693;28;20509;-72
2022/07/11 14:14:15;;;;;;;2.23;1.47;;;22.70;54.10;;;;;;5011546;28;20473;-71
2022/07/11 14:16:43;;;;;;;1.30;1.20;;;22.80;54.20;;;;;;5008139;28;20526;-71